Weather at Savusavu Airport

Public forecast

Using degrees Celsius for public forecast. Weather courtesy of forecast.io.

Current aviation weather report (METAR) for Savusavu Airport

Report is more than 6 hours old.

Retrieved 2022/01/18 19:00 UTC (18 hours ago):

NFNS 181900Z AUTO VRB03KT //// ///// Q////

Closest aviation forecast (TAF) to Savusavu Airport

Closest forecast is Nausori International Airport, 86.9 nm (160.9 km) SSW. Retrieved 2022/01/19 12:00 UTC (59 minutes ago):

TAF NFNA 191110Z 1912/2012 09008KT 9999 SCT020 PROB40 TEMPO 1918/1920 5000 TSRA BKN015 FEW018CB PROB40 TEMPO 2002/2008 5000 TSRA BKN015 FEW018CB